Time;durP1;ratioP1;P1;durP2;ratioP2;P2;SDS_P1;SDS_P2;PMS_P1;PMS_P2;Temp;Humidity;BMP_temperature;BMP_pressure;BME280_temperature;BME280_humidity;BME280_pressure;Samples;Min_cycle;Max_cycle;Signal;HPM_P1;HPM_P2
2021/10/21 04:00:54;;;;;;;3.33;1.43;;;15.60;99.90;;;;;;6228911;22;20903;-70
2021/10/21 04:03:21;;;;;;;1.17;1.17;;;15.60;99.90;;;;;;6247692;23;20968;-70
2021/10/21 04:05:48;;;;;;;1.27;1.10;;;15.60;99.90;;;;;;6247950;23;20501;-70
2021/10/21 04:08:14;;;;;;;1.00;1.00;;;15.60;99.90;;;;;;6247518;23;20415;-71
2021/10/21 04:10:42;;;;;;;1.20;1.13;;;15.60;99.90;;;;;;6247244;22;20434;-69
2021/10/21 04:13:09;;;;;;;4.23;0.87;;;15.60;99.90;;;;;;6247078;23;20413;-70
2021/10/21 04:15:36;;;;;;;1.17;1.07;;;15.50;99.90;;;;;;6247317;23;20415;-71
2021/10/21 04:18:04;;;;;;;1.10;1.00;;;15.50;99.90;;;;;;6247504;23;20395;-72
2021/10/21 04:20:31;;;;;;;1.83;1.00;;;15.40;99.90;;;;;;6246635;22;20430;-71
2021/10/21 04:22:59;;;;;;;1.63;1.07;;;15.40;99.90;;;;;;6246482;23;20934;-70
2021/10/21 04:25:25;;;;;;;0.90;0.90;;;15.40;99.90;;;;;;6246770;23;20418;-70
2021/10/21 04:27:52;;;;;;;1.47;0.93;;;15.30;99.90;;;;;;6246954;23;20414;-70
2021/10/21 04:30:19;;;;;;;1.03;0.80;;;15.30;99.90;;;;;;6246828;22;20415;-70
2021/10/21 04:32:45;;;;;;;0.90;0.70;;;15.30;99.90;;;;;;6247055;23;20817;-70
2021/10/21 04:35:13;;;;;;;1.00;0.93;;;15.20;99.90;;;;;;6247290;23;20414;-70
2021/10/21 04:37:40;;;;;;;0.80;0.53;;;15.20;99.90;;;;;;6246956;23;20415;-70
2021/10/21 04:40:08;;;;;;;0.73;0.73;;;15.10;99.90;;;;;;6247101;23;20395;-70
2021/10/21 04:42:36;;;;;;;0.80;0.80;;;15.10;99.90;;;;;;6246955;23;20426;-70
2021/10/21 04:45:03;;;;;;;0.80;0.80;;;15.10;99.90;;;;;;6247153;23;20506;-70
2021/10/21 04:47:29;;;;;;;2.10;1.07;;;15.00;99.90;;;;;;6246826;23;20411;-70
2021/10/21 04:49:56;;;;;;;0.63;0.63;;;14.90;99.90;;;;;;6247120;23;20398;-70
2021/10/21 04:52:24;;;;;;;0.80;0.77;;;14.90;99.90;;;;;;6246857;22;20427;-70
2021/10/21 04:54:51;;;;;;;2.40;0.90;;;14.80;99.90;;;;;;6246850;23;20395;-70
2021/10/21 04:57:18;;;;;;;2.43;0.90;;;14.80;99.90;;;;;;6246528;23;20411;-70
2021/10/21 04:59:44;;;;;;;1.57;0.77;;;14.80;99.90;;;;;;6247519;23;20418;-70
2021/10/21 05:02:11;;;;;;;1.00;0.80;;;14.70;99.90;;;;;;6246659;22;20442;-70
2021/10/21 05:04:38;;;;;;;0.70;0.70;;;14.60;99.90;;;;;;6246841;23;20778;-69
2021/10/21 05:07:04;;;;;;;1.60;1.00;;;14.60;99.90;;;;;;6246489;23;20434;-69
2021/10/21 05:09:32;;;;;;;0.90;0.80;;;14.50;99.90;;;;;;6247020;23;20779;-68
2021/10/21 05:11:59;;;;;;;0.90;0.90;;;14.50;99.90;;;;;;6246080;22;21118;-68
2021/10/21 05:14:26;;;;;;;1.50;0.90;;;14.50;99.90;;;;;;6246625;23;20411;-69
2021/10/21 05:16:53;;;;;;;6.67;1.40;;;14.40;99.90;;;;;;6246770;23;20411;-68
2021/10/21 05:19:19;;;;;;;2.60;0.90;;;14.50;99.90;;;;;;6246243;23;20750;-72
2021/10/21 05:21:46;;;;;;;1.80;1.00;;;14.40;99.90;;;;;;6246167;22;20435;-73
2021/10/21 05:24:13;;;;;;;4.70;1.17;;;14.30;99.90;;;;;;6246885;23;20435;-70
2021/10/21 05:26:41;;;;;;;6.77;1.00;;;14.30;99.90;;;;;;6246932;23;20410;-70
2021/10/21 05:29:08;;;;;;;2.73;1.23;;;14.30;99.90;;;;;;6246960;23;20418;-71
2021/10/21 05:31:34;;;;;;;3.10;0.83;;;14.30;99.90;;;;;;6246334;22;20939;-70
2021/10/21 05:34:02;;;;;;;5.33;1.50;;;14.20;99.90;;;;;;6247821;23;20406;-72
2021/10/21 05:36:28;;;;;;;3.03;0.87;;;14.20;99.90;;;;;;6246763;23;20510;-70
2021/10/21 05:38:57;;;;;;;3.20;1.30;;;14.10;99.90;;;;;;6246472;23;20410;-70
2021/10/21 05:41:24;;;;;;;3.23;1.53;;;14.00;99.90;;;;;;6246746;22;20463;-70
2021/10/21 05:43:53;;;;;;;3.33;1.10;;;14.00;99.90;;;;;;6246145;23;20434;-70
2021/10/21 05:46:21;;;;;;;3.70;1.57;;;14.00;99.90;;;;;;6246354;23;20426;-70
2021/10/21 05:48:47;;;;;;;4.90;0.80;;;14.00;99.90;;;;;;6246518;23;20421;-70
2021/10/21 05:51:14;;;;;;;7.67;1.43;;;14.00;99.90;;;;;;6245658;22;20439;-69
2021/10/21 05:53:41;;;;;;;5.87;1.60;;;13.90;99.90;;;;;;6246398;23;20892;-70
2021/10/21 05:56:08;;;;;;;2.93;0.90;;;13.90;99.90;;;;;;6246363;23;20800;-69
2021/10/21 05:58:35;;;;;;;8.20;1.77;;;13.90;99.90;;;;;;6246896;23;20411;-71
2021/10/21 06:01:03;;;;;;;9.00;1.40;;;13.90;99.90;;;;;;6250149;22;20442;-71
2021/10/21 06:03:35;;;;;;;2.63;1.50;;;13.80;99.90;;;;;;6248950;23;20457;-71
2021/10/21 06:06:02;;;;;;;6.40;1.10;;;13.80;99.90;;;;;;6247719;23;20871;-70
2021/10/21 06:08:29;;;;;;;6.83;1.20;;;13.90;99.90;;;;;;6248415;23;20406;-70
2021/10/21 06:10:56;;;;;;;4.57;1.50;;;13.90;99.90;;;;;;6248104;22;20430;-70
2021/10/21 06:13:22;;;;;;;6.03;1.70;;;13.90;99.90;;;;;;6248481;23;20402;-70
2021/10/21 06:15:49;;;;;;;4.40;1.87;;;13.90;99.90;;;;;;6247969;23;20411;-70
2021/10/21 06:18:17;;;;;;;2.63;1.33;;;13.90;99.90;;;;;;6248053;23;20740;-70
2021/10/21 06:20:45;;;;;;;3.70;1.63;;;14.00;99.90;;;;;;6247659;22;20832;-70
2021/10/21 06:23:12;;;;;;;9.20;2.00;;;14.00;99.90;;;;;;6248090;23;20441;-70
2021/10/21 06:25:39;;;;;;;4.17;1.70;;;13.90;99.90;;;;;;6247659;23;20411;-70
2021/10/21 06:28:05;;;;;;;5.70;1.33;;;13.90;99.90;;;;;;6248635;23;20460;-71
2021/10/21 06:30:32;;;;;;;3.53;1.20;;;13.90;99.90;;;;;;6247752;22;20962;-70
2021/10/21 06:32:59;;;;;;;6.27;1.30;;;13.90;99.90;;;;;;6247822;23;20411;-70
2021/10/21 06:35:27;;;;;;;4.70;1.53;;;13.90;99.90;;;;;;6248140;23;20738;-70
2021/10/21 06:37:54;;;;;;;4.30;1.47;;;13.80;99.90;;;;;;6247668;23;20411;-70
2021/10/21 06:40:22;;;;;;;7.20;1.40;;;13.90;99.90;;;;;;6247872;22;20422;-69
2021/10/21 06:42:49;;;;;;;4.30;1.20;;;13.80;99.90;;;;;;6248323;23;20431;-69
2021/10/21 06:45:16;;;;;;;4.00;1.10;;;13.80;99.90;;;;;;6251189;23;20418;-71
2021/10/21 06:47:43;;;;;;;5.90;1.10;;;13.80;99.90;;;;;;6251405;23;20417;-70
2021/10/21 06:50:11;;;;;;;6.07;1.50;;;13.90;99.90;;;;;;6247824;22;20411;-69
2021/10/21 06:52:40;;;;;;;7.23;1.97;;;13.90;99.90;;;;;;6247961;23;20422;-69
2021/10/21 06:55:08;;;;;;;9.67;1.40;;;14.00;99.90;;;;;;6247992;23;20418;-69
2021/10/21 06:57:46;;;;;;;1.70;0.93;;;14.10;99.90;;;;;;6248512;23;20915;-69
2021/10/21 07:00:14;;;;;;;4.57;1.43;;;14.40;99.90;;;;;;6247566;22;20460;-69
2021/10/21 07:02:41;;;;;;;7.50;2.77;;;14.90;99.90;;;;;;6245730;23;20395;-69
2021/10/21 07:05:08;;;;;;;5.40;1.30;;;15.40;99.90;;;;;;6246205;23;20410;-69
2021/10/21 07:07:35;;;;;;;6.50;1.40;;;15.90;99.90;;;;;;6246218;23;20411;-69
2021/10/21 07:10:05;;;;;;;3.03;1.20;;;16.00;99.90;;;;;;6245530;23;20410;-69
2021/10/21 07:12:32;;;;;;;4.47;1.23;;;15.90;99.90;;;;;;6246252;22;20431;-69
2021/10/21 07:14:59;;;;;;;1.20;0.93;;;16.20;99.90;;;;;;6245950;23;20415;-69
2021/10/21 07:17:26;;;;;;;4.20;1.30;;;16.60;99.90;;;;;;6246250;23;20411;-70
2021/10/21 07:19:53;;;;;;;4.90;1.17;;;17.00;99.90;;;;;;6246194;23;20445;-69
2021/10/21 07:22:20;;;;;;;2.43;0.90;;;17.60;99.90;;;;;;6246239;22;20462;-69
2021/10/21 07:24:46;;;;;;;4.40;0.73;;;18.10;98.70;;;;;;6246123;23;20435;-69
2021/10/21 07:27:15;;;;;;;0.70;0.70;;;18.40;97.60;;;;;;6246097;23;20434;-69
2021/10/21 07:29:41;;;;;;;10.77;1.10;;;19.00;96.00;;;;;;6245629;23;20411;-70
2021/10/21 07:32:08;;;;;;;2.10;0.80;;;19.40;94.00;;;;;;6251664;22;20431;-70
2021/10/21 07:34:35;;;;;;;5.60;1.10;;;19.60;92.60;;;;;;6253202;23;20429;-70
2021/10/21 07:37:02;;;;;;;4.83;0.87;;;19.60;92.00;;;;;;6248272;23;20902;-70
2021/10/21 07:39:29;;;;;;;8.57;0.93;;;18.80;92.90;;;;;;6247210;23;20410;-70
2021/10/21 07:42:00;;;;;;;1.30;0.60;;;17.70;93.60;;;;;;6246609;22;20441;-70
2021/10/21 07:44:28;;;;;;;5.83;1.20;;;17.60;94.80;;;;;;6246522;23;20449;-70
2021/10/21 07:46:55;;;;;;;2.10;0.60;;;17.30;95.50;;;;;;6245969;23;20418;-69
2021/10/21 07:49:21;;;;;;;6.13;0.80;;;17.40;95.50;;;;;;6246200;23;20411;-69
2021/10/21 07:51:48;;;;;;;1.70;0.70;;;17.10;95.50;;;;;;6246123;22;20438;-70
2021/10/21 07:54:15;;;;;;;4.63;0.63;;;17.60;95.80;;;;;;6246296;23;20411;-70
2021/10/21 07:56:42;;;;;;;4.97;1.47;;;17.10;95.60;;;;;;6245936;23;20745;-70
2021/10/21 07:59:09;;;;;;;2.63;0.97;;;17.70;95.90;;;;;;6245926;23;20418;-69
2021/10/21 08:01:37;;;;;;;7.72;1.15;;;17.60;95.60;;;;;;6201499;23;1043704;-69
2021/10/21 08:04:04;;;;;;;2.03;0.50;;;17.50;95.80;;;;;;6249144;23;20275;-69
2021/10/21 08:06:33;;;;;;;6.00;1.50;;;17.10;95.60;;;;;;6247281;23;20421;-70
2021/10/21 08:09:02;;;;;;;2.00;1.27;;;17.60;96.00;;;;;;6246996;23;20442;-69
2021/10/21 08:11:29;;;;;;;4.13;0.60;;;17.70;95.70;;;;;;6247259;22;20481;-69
2021/10/21 08:13:56;;;;;;;1.33;1.00;;;18.10;95.60;;;;;;6246961;23;20896;-70
2021/10/21 08:16:23;;;;;;;1.23;0.80;;;18.30;95.40;;;;;;6247013;23;20421;-70
2021/10/21 08:18:51;;;;;;;1.33;0.77;;;18.80;95.10;;;;;;6246707;23;20751;-70
2021/10/21 08:21:17;;;;;;;1.13;0.57;;;18.60;94.50;;;;;;6246655;22;20430;-70
2021/10/21 08:23:47;;;;;;;5.20;1.13;;;18.20;95.00;;;;;;6246743;23;20426;-69
2021/10/21 08:26:14;;;;;;;4.90;0.70;;;18.30;95.70;;;;;;6246938;23;20411;-70
2021/10/21 08:28:41;;;;;;;2.13;0.70;;;18.50;95.00;;;;;;6246910;23;20787;-70
2021/10/21 08:31:08;;;;;;;5.63;0.80;;;17.70;95.90;;;;;;6246748;22;20438;-70
2021/10/21 08:33:35;;;;;;;1.43;0.80;;;17.50;97.00;;;;;;6246991;23;20407;-70
2021/10/21 08:36:03;;;;;;;2.73;0.60;;;17.40;97.50;;;;;;6248460;23;20410;-70
2021/10/21 08:38:29;;;;;;;3.87;1.10;;;17.60;97.20;;;;;;6251830;23;20742;-70
2021/10/21 08:40:56;;;;;;;1.80;0.63;;;17.40;97.70;;;;;;6251564;22;20431;-69
2021/10/21 08:43:23;;;;;;;2.20;0.80;;;17.20;98.40;;;;;;6247476;23;20411;-69
2021/10/21 08:45:49;;;;;;;2.00;1.17;;;17.70;99.50;;;;;;6246670;23;20477;-69
2021/10/21 08:48:17;;;;;;;0.97;0.60;;;18.40;98.10;;;;;;6247011;23;20418;-69
2021/10/21 08:50:44;;;;;;;1.27;0.80;;;18.20;97.30;;;;;;6246545;22;20442;-69
2021/10/21 08:53:12;;;;;;;1.47;0.63;;;18.70;97.00;;;;;;6246871;23;20433;-69
2021/10/21 08:55:39;;;;;;;4.77;0.60;;;18.90;97.10;;;;;;6256401;23;20445;-69
2021/10/21 08:58:06;;;;;;;1.17;0.73;;;19.40;96.40;;;;;;6246666;23;20410;-70
2021/10/21 09:00:34;;;;;;;0.60;0.60;;;20.10;96.40;;;;;;6245990;22;20970;-69
2021/10/21 09:03:02;;;;;;;0.70;0.70;;;19.80;95.20;;;;;;6246597;23;20396;-70
2021/10/21 09:05:32;;;;;;;2.43;0.50;;;19.60;95.50;;;;;;6246479;23;20435;-70
2021/10/21 09:08:08;;;;;;;0.67;0.50;;;19.80;95.60;;;;;;6246107;23;20888;-70
2021/10/21 09:10:43;;;;;;;0.63;0.50;;;20.40;94.80;;;;;;6246572;22;20426;-70
2021/10/21 09:13:25;;;;;;;3.33;0.40;;;20.50;94.10;;;;;;6246747;23;20401;-70
2021/10/21 09:15:55;;;;;;;0.50;0.50;;;20.70;93.70;;;;;;6246912;23;20391;-70
2021/10/21 09:18:23;;;;;;;4.00;0.70;;;20.80;92.70;;;;;;6246728;23;20875;-70
2021/10/21 09:20:49;;;;;;;1.13;0.60;;;20.80;92.80;;;;;;6246856;22;20939;-70
2021/10/21 09:23:18;;;;;;;0.60;0.60;;;20.90;91.80;;;;;;6246683;23;20411;-70
2021/10/21 09:25:47;;;;;;;0.60;0.50;;;20.90;91.60;;;;;;6247026;23;20888;-70
2021/10/21 09:28:22;;;;;;;2.10;0.60;;;21.20;92.20;;;;;;6246584;23;20433;-70
2021/10/21 09:30:56;;;;;;;2.37;0.40;;;21.60;91.10;;;;;;6246508;22;20437;-70
2021/10/21 09:33:23;;;;;;;5.80;0.60;;;21.70;90.60;;;;;;6247027;23;20399;-70
2021/10/21 09:35:59;;;;;;;0.50;0.50;;;22.20;88.00;;;;;;6248943;23;20411;-70
2021/10/21 09:38:28;;;;;;;1.77;0.60;;;22.50;86.40;;;;;;6248957;23;20492;-70
2021/10/21 09:40:59;;;;;;;0.53;0.50;;;22.80;84.10;;;;;;6248307;22;20430;-70
2021/10/21 09:43:32;;;;;;;1.63;0.50;;;22.00;84.90;;;;;;6248586;23;20955;-71
2021/10/21 09:45:59;;;;;;;0.40;0.40;;;21.60;86.20;;;;;;6250534;23;20410;-69
2021/10/21 09:48:26;;;;;;;0.93;0.43;;;21.50;85.40;;;;;;6248672;23;20884;-70
2021/10/21 09:50:53;;;;;;;2.30;0.60;;;21.10;86.70;;;;;;6258982;22;20457;-69
2021/10/21 09:53:21;;;;;;;1.30;0.60;;;21.40;86.50;;;;;;6248795;23;20411;-70
2021/10/21 09:55:51;;;;;;;0.90;0.50;;;21.50;86.60;;;;;;6248617;23;20422;-70
2021/10/21 09:58:21;;;;;;;1.33;0.60;;;22.20;84.40;;;;;;6248557;23;20410;-70
2021/10/21 10:00:49;;;;;;;5.73;0.90;;;22.30;81.40;;;;;;6248635;22;20449;-70
2021/10/21 10:03:18;;;;;;;0.60;0.60;;;22.70;81.40;;;;;;6248792;23;20419;-70
2021/10/21 10:05:49;;;;;;;0.63;0.60;;;22.40;81.80;;;;;;6249346;23;20430;-69
2021/10/21 10:08:17;;;;;;;1.37;0.60;;;22.50;79.40;;;;;;6249504;23;20426;-70
2021/10/21 10:10:45;;;;;;;0.83;0.83;;;22.30;78.20;;;;;;6249802;22;20430;-69
2021/10/21 10:13:13;;;;;;;3.00;0.80;;;22.00;77.30;;;;;;6248976;23;20414;-70
2021/10/21 10:15:44;;;;;;;1.90;0.80;;;21.60;78.60;;;;;;6248975;23;20494;-70
2021/10/21 10:18:16;;;;;;;3.93;0.80;;;21.90;79.80;;;;;;6248882;23;20402;-70
2021/10/21 10:20:46;;;;;;;3.13;1.03;;;22.50;78.40;;;;;;6248614;22;20438;-70
2021/10/21 10:23:13;;;;;;;1.90;1.00;;;22.70;77.50;;;;;;6247934;23;20739;-70
2021/10/21 10:25:45;;;;;;;2.33;0.73;;;22.90;75.10;;;;;;6248527;23;20776;-70
2021/10/21 10:28:12;;;;;;;2.93;0.90;;;23.60;72.70;;;;;;6248428;23;20486;-70
2021/10/21 10:30:49;;;;;;;1.17;0.60;;;23.90;72.00;;;;;;6248145;22;20506;-70
2021/10/21 10:33:42;;;;;;;1.60;0.60;;;24.30;70.90;;;;;;6253603;23;20405;-71
2021/10/21 10:36:27;;;;;;;1.50;0.60;;;24.50;68.90;;;;;;6253067;23;20936;-70
2021/10/21 10:38:54;;;;;;;0.70;0.70;;;24.50;67.60;;;;;;6248553;23;20751;-71
2021/10/21 10:41:53;;;;;;;1.20;1.10;;;24.50;68.20;;;;;;6248387;22;20962;-70
2021/10/21 10:44:57;;;;;;;2.60;1.00;;;23.60;65.90;;;;;;6248438;23;20447;-70
2021/10/21 10:47:43;;;;;;;1.70;1.00;;;22.90;67.80;;;;;;6228864;23;20410;-71
2021/10/21 10:50:16;;;;;;;1.30;0.90;;;22.70;70.40;;;;;;6250003;23;20391;-71
2021/10/21 10:52:49;;;;;;;4.50;1.00;;;22.10;72.10;;;;;;6248332;23;20399;-70
2021/10/21 10:55:16;;;;;;;3.33;1.17;;;21.30;72.00;;;;;;6248240;23;20454;-70
2021/10/21 10:57:54;;;;;;;2.43;1.07;;;20.80;74.40;;;;;;6248036;23;20407;-71
2021/10/21 11:00:49;;;;;;;2.33;0.80;;;20.00;73.90;;;;;;6247928;22;20414;-70
2021/10/21 11:03:30;;;;;;;3.53;1.50;;;19.60;79.10;;;;;;6177802;23;20419;-71
2021/10/21 11:05:59;;;;;;;3.57;1.20;;;19.40;78.00;;;;;;6247649;23;20426;-71
2021/10/21 11:08:51;;;;;;;2.57;1.03;;;19.30;78.10;;;;;;6247324;23;20411;-71
2021/10/21 11:11:44;;;;;;;2.67;0.80;;;19.20;79.90;;;;;;6247931;22;20453;-70
2021/10/21 11:14:13;;;;;;;2.13;1.33;;;19.20;81.50;;;;;;6247398;23;20418;-70
2021/10/21 11:16:44;;;;;;;2.23;1.00;;;19.30;85.10;;;;;;6247709;23;20414;-71
2021/10/21 11:19:12;;;;;;;2.73;1.00;;;19.30;81.60;;;;;;6247545;23;20395;-70
2021/10/21 11:21:52;;;;;;;2.83;1.03;;;19.10;82.70;;;;;;6248065;22;20474;-71
2021/10/21 11:24:53;;;;;;;2.10;0.90;;;19.20;84.80;;;;;;6248293;23;20488;-70
2021/10/21 11:27:21;;;;;;;2.43;1.30;;;19.20;82.40;;;;;;6239531;23;20407;-70
2021/10/21 11:29:48;;;;;;;2.07;1.70;;;19.20;79.90;;;;;;6248465;23;20414;-71
2021/10/21 11:32:16;;;;;;;2.00;0.73;;;19.20;81.30;;;;;;6247531;22;20934;-70
2021/10/21 11:34:47;;;;;;;3.53;1.10;;;19.20;78.80;;;;;;6247463;23;20391;-70
2021/10/21 11:37:15;;;;;;;1.90;0.90;;;18.70;78.20;;;;;;6247712;23;20395;-70
2021/10/21 11:39:43;;;;;;;1.90;1.37;;;18.80;79.80;;;;;;6247734;23;20403;-71
2021/10/21 11:42:12;;;;;;;1.30;0.90;;;18.60;78.80;;;;;;6247540;22;20449;-70
2021/10/21 11:44:40;;;;;;;2.37;1.30;;;18.70;81.00;;;;;;6247302;23;20445;-70
2021/10/21 11:47:09;;;;;;;2.50;1.00;;;18.80;82.20;;;;;;6247426;23;20418;-70
2021/10/21 11:49:38;;;;;;;2.93;0.90;;;19.00;82.20;;;;;;6247606;23;20410;-72
2021/10/21 11:52:06;;;;;;;1.73;1.17;;;19.00;77.50;;;;;;6247368;22;20431;-70
2021/10/21 11:54:34;;;;;;;2.00;0.87;;;19.00;77.50;;;;;;6247505;23;20410;-70
2021/10/21 11:57:01;;;;;;;1.57;0.97;;;18.80;76.40;;;;;;6247246;23;20808;-69
2021/10/21 11:59:35;;;;;;;1.53;0.90;;;18.70;77.80;;;;;;6247418;23;20415;-69
2021/10/21 12:02:10;;;;;;;5.47;0.90;;;18.80;79.50;;;;;;6247049;22;20439;-71
2021/10/21 12:04:37;;;;;;;1.20;1.03;;;18.10;77.70;;;;;;6247098;23;20434;-70
2021/10/21 12:07:04;;;;;;;2.47;1.00;;;17.80;80.10;;;;;;6246868;23;20737;-71
2021/10/21 12:09:34;;;;;;;2.40;1.40;;;17.60;80.90;;;;;;6246832;23;20411;-70
2021/10/21 12:12:02;;;;;;;6.67;1.20;;;17.40;80.10;;;;;;6246700;22;20958;-70
2021/10/21 12:14:30;;;;;;;2.40;1.43;;;17.40;82.30;;;;;;6247240;23;20418;-70
2021/10/21 12:16:57;;;;;;;3.70;1.10;;;17.60;83.80;;;;;;6247741;23;20411;-70
2021/10/21 12:19:25;;;;;;;2.60;1.30;;;17.70;81.80;;;;;;6247111;23;20418;-70
2021/10/21 12:21:52;;;;;;;1.20;0.90;;;17.80;79.40;;;;;;6247015;22;20488;-70
2021/10/21 12:24:20;;;;;;;2.73;1.20;;;17.60;79.10;;;;;;6246726;23;20907;-70
2021/10/21 12:26:55;;;;;;;5.47;1.43;;;17.70;79.20;;;;;;6246684;23;20411;-70
2021/10/21 12:29:24;;;;;;;2.10;1.03;;;17.80;81.90;;;;;;6247557;23;20703;-70
2021/10/21 12:31:51;;;;;;;2.23;0.80;;;18.10;80.30;;;;;;6247353;22;20736;-71
2021/10/21 12:34:25;;;;;;;3.50;1.57;;;18.20;79.70;;;;;;6246957;23;20422;-71
2021/10/21 12:36:54;;;;;;;8.47;1.27;;;18.20;79.20;;;;;;6247298;23;20436;-70
2021/10/21 12:39:25;;;;;;;3.90;1.20;;;18.20;78.70;;;;;;6247117;23;20415;-70
2021/10/21 12:41:56;;;;;;;2.80;1.10;;;18.20;81.60;;;;;;6247054;22;20430;-70
2021/10/21 12:44:25;;;;;;;2.97;1.43;;;18.40;81.80;;;;;;6246569;23;20891;-70
2021/10/21 12:47:11;;;;;;;1.60;1.10;;;18.60;82.50;;;;;;6247069;23;20415;-70
2021/10/21 12:49:38;;;;;;;2.30;0.90;;;18.70;80.10;;;;;;6247503;23;20482;-70
2021/10/21 12:52:07;;;;;;;2.50;1.20;;;18.50;80.00;;;;;;6247217;22;20438;-70
2021/10/21 12:54:35;;;;;;;0.97;0.70;;;18.30;79.50;;;;;;6247086;23;20434;-70
2021/10/21 12:57:04;;;;;;;6.23;1.50;;;18.30;78.60;;;;;;6246847;23;20411;-69
2021/10/21 12:59:31;;;;;;;2.00;1.03;;;18.30;79.30;;;;;;6247017;23;20738;-70
2021/10/21 13:02:02;;;;;;;1.63;0.97;;;18.50;79.70;;;;;;6246421;22;20442;-69
2021/10/21 13:04:45;;;;;;;1.73;1.07;;;18.50;79.60;;;;;;6247444;23;20441;-69
2021/10/21 13:07:15;;;;;;;1.40;0.70;;;18.80;79.90;;;;;;6246883;23;20406;-70
2021/10/21 13:09:42;;;;;;;2.53;0.73;;;18.40;76.70;;;;;;6248500;23;20521;-70
2021/10/21 13:12:13;;;;;;;3.70;0.93;;;18.10;79.00;;;;;;6249542;22;20437;-71
2021/10/21 13:14:41;;;;;;;2.37;0.70;;;17.80;80.60;;;;;;6249923;23;20792;-70
2021/10/21 13:17:08;;;;;;;2.13;0.80;;;17.70;81.10;;;;;;6248708;23;20410;-70
2021/10/21 13:19:36;;;;;;;0.97;0.70;;;17.80;80.40;;;;;;6248639;23;20417;-71
2021/10/21 13:22:03;;;;;;;1.80;0.93;;;17.80;81.30;;;;;;6249486;22;20435;-70
2021/10/21 13:24:30;;;;;;;0.70;0.70;;;17.70;80.90;;;;;;6248557;23;20484;-70
2021/10/21 13:26:58;;;;;;;0.70;0.70;;;17.60;79.70;;;;;;6248696;23;20406;-69
2021/10/21 13:29:27;;;;;;;2.60;0.80;;;17.70;80.30;;;;;;6248468;23;20406;-70
2021/10/21 13:31:54;;;;;;;0.70;0.70;;;17.50;81.00;;;;;;6250637;22;20431;-70
2021/10/21 13:34:22;;;;;;;1.97;0.73;;;17.40;78.80;;;;;;6256789;23;20413;-70
2021/10/21 13:36:48;;;;;;;1.27;0.63;;;17.10;79.80;;;;;;6256909;23;20413;-70
2021/10/21 13:39:17;;;;;;;0.87;0.83;;;17.00;79.70;;;;;;6254241;23;20441;-70
2021/10/21 13:41:44;;;;;;;2.87;1.00;;;17.00;80.10;;;;;;6250360;22;20434;-70
2021/10/21 13:44:11;;;;;;;1.03;0.67;;;17.10;79.10;;;;;;6253233;23;20418;-70
2021/10/21 13:46:39;;;;;;;1.70;1.00;;;17.00;77.50;;;;;;6254272;23;20439;-71
2021/10/21 13:49:06;;;;;;;1.47;0.77;;;16.80;77.70;;;;;;6252862;23;20437;-71
2021/10/21 13:51:33;;;;;;;0.90;0.80;;;16.60;77.80;;;;;;6253123;22;20923;-71
2021/10/21 13:53:59;;;;;;;1.37;0.73;;;16.40;79.00;;;;;;6252030;23;20891;-71
2021/10/21 13:56:27;;;;;;;1.40;0.87;;;16.30;79.90;;;;;;6249749;23;20433;-71
2021/10/21 13:58:54;;;;;;;1.20;0.77;;;16.50;82.20;;;;;;6248780;23;20464;-70
2021/10/21 14:01:24;;;;;;;0.97;0.70;;;16.70;79.70;;;;;;6248116;22;20449;-70
2021/10/21 14:03:52;;;;;;;0.83;0.77;;;17.00;82.40;;;;;;6248272;23;20415;-70
2021/10/21 14:06:18;;;;;;;0.63;0.60;;;17.20;79.70;;;;;;6247760;23;20943;-71
2021/10/21 14:08:47;;;;;;;2.07;0.70;;;17.30;79.90;;;;;;6248231;23;20410;-71
2021/10/21 14:11:13;;;;;;;1.50;0.93;;;17.40;77.10;;;;;;6248097;22;20431;-70
2021/10/21 14:13:40;;;;;;;0.90;0.80;;;17.30;74.40;;;;;;6248333;23;20417;-70
2021/10/21 14:16:07;;;;;;;2.00;0.83;;;17.30;73.60;;;;;;6248592;23;20411;-70
2021/10/21 14:18:34;;;;;;;1.27;0.80;;;17.00;72.40;;;;;;6248308;23;20411;-70
2021/10/21 14:21:02;;;;;;;1.50;0.93;;;17.00;73.70;;;;;;6247669;22;21008;-70
2021/10/21 14:23:29;;;;;;;2.03;0.70;;;17.10;74.10;;;;;;6247919;23;20418;-71
2021/10/21 14:25:55;;;;;;;2.10;0.90;;;17.10;74.70;;;;;;6247936;23;20430;-71
2021/10/21 14:28:22;;;;;;;0.63;0.63;;;16.90;75.20;;;;;;6247899;23;20411;-69
2021/10/21 14:30:49;;;;;;;1.80;1.23;;;16.80;73.30;;;;;;6247914;22;20809;-69
2021/10/21 14:33:16;;;;;;;1.13;0.97;;;16.90;73.60;;;;;;6247578;23;20923;-69
2021/10/21 14:35:43;;;;;;;2.57;1.10;;;16.80;72.20;;;;;;6249572;23;20406;-68
2021/10/21 14:38:11;;;;;;;2.87;0.80;;;16.60;73.10;;;;;;6252990;23;20435;-68
2021/10/21 14:40:38;;;;;;;2.00;0.90;;;16.40;74.60;;;;;;6254556;22;20437;-69
2021/10/21 14:43:05;;;;;;;3.00;1.10;;;16.50;75.60;;;;;;6254355;23;20418;-69
2021/10/21 14:45:31;;;;;;;3.80;0.67;;;16.40;75.90;;;;;;6250392;23;20442;-70
2021/10/21 14:47:58;;;;;;;1.43;0.70;;;16.50;75.90;;;;;;6248937;23;20418;-69
2021/10/21 14:50:25;;;;;;;1.50;1.10;;;16.50;76.40;;;;;;6248638;22;20441;-69
2021/10/21 14:52:52;;;;;;;2.27;0.70;;;16.60;75.30;;;;;;6248904;23;20415;-69
2021/10/21 14:55:20;;;;;;;2.30;1.00;;;16.50;75.80;;;;;;6248271;23;20411;-70
2021/10/21 14:57:47;;;;;;;1.80;0.80;;;16.60;78.00;;;;;;6248726;23;20410;-69
2021/10/21 15:00:13;;;;;;;1.43;1.13;;;16.70;78.70;;;;;;6248190;23;20433;-69
2021/10/21 15:02:40;;;;;;;1.13;1.03;;;16.70;78.00;;;;;;6247379;23;20403;-69
2021/10/21 15:05:12;;;;;;;3.87;0.90;;;16.70;78.00;;;;;;6248103;23;20442;-70
2021/10/21 15:07:57;;;;;;;2.73;1.00;;;16.80;80.00;;;;;;6247791;23;20729;-69
2021/10/21 15:10:46;;;;;;;2.33;0.90;;;16.80;78.40;;;;;;6247717;22;20418;-69
2021/10/21 15:13:20;;;;;;;2.10;1.10;;;16.70;78.60;;;;;;6247727;23;20387;-70
2021/10/21 15:24:00;;;;;;;7.00;1.13;;;16.50;79.90;;;;;;6247746;23;20459;-70
2021/10/21 15:26:28;;;;;;;2.97;1.30;;;16.40;80.50;;;;;;6257358;23;20435;-70
2021/10/21 15:28:55;;;;;;;1.30;0.90;;;16.20;80.20;;;;;;6247421;23;20738;-70
2021/10/21 15:31:21;;;;;;;1.70;1.27;;;16.10;81.30;;;;;;6247805;22;20430;-69
2021/10/21 15:33:48;;;;;;;2.00;1.23;;;15.90;80.80;;;;;;6247544;23;20417;-70
2021/10/21 15:36:15;;;;;;;1.87;1.20;;;15.80;80.90;;;;;;6247248;23;20407;-70
2021/10/21 15:38:47;;;;;;;4.10;1.70;;;15.50;82.70;;;;;;6247284;23;20417;-69
2021/10/21 15:41:14;;;;;;;1.90;1.50;;;15.60;84.30;;;;;;6247368;22;20453;-70
2021/10/21 15:43:45;;;;;;;2.77;0.90;;;15.60;82.70;;;;;;6247330;23;20414;-68
2021/10/21 15:46:13;;;;;;;1.97;0.90;;;15.60;82.60;;;;;;6247584;23;20418;-70
2021/10/21 15:49:05;;;;;;;0.80;0.80;;;15.50;83.30;;;;;;6247878;23;20454;-69
2021/10/21 16:11:03;;;;;;;4.33;1.30;;;15.00;84.80;;;;;;6246923;22;20421;-69
2021/10/21 16:13:29;;;;;;;1.83;0.97;;;14.90;84.90;;;;;;6247395;23;20485;-69
2021/10/21 16:15:58;;;;;;;3.00;1.23;;;14.90;83.00;;;;;;6247102;23;20411;-69
2021/10/21 16:18:25;;;;;;;2.30;1.43;;;14.80;83.40;;;;;;6247144;23;20417;-69
2021/10/21 16:20:54;;;;;;;3.73;1.50;;;14.80;83.40;;;;;;6246721;22;20513;-69
2021/10/21 16:23:31;;;;;;;2.40;1.50;;;14.70;82.90;;;;;;6246989;23;20502;-70
2021/10/21 16:26:15;;;;;;;3.53;1.47;;;14.80;84.30;;;;;;6246517;23;20467;-69
2021/10/21 16:28:42;;;;;;;3.73;1.80;;;14.80;84.30;;;;;;6247032;23;20486;-69
2021/10/21 16:31:10;;;;;;;4.30;1.70;;;14.80;85.10;;;;;;6246790;22;20430;-69
2021/10/21 16:33:37;;;;;;;4.20;1.50;;;14.80;85.60;;;;;;6246607;23;20411;-70
2021/10/21 16:36:04;;;;;;;2.93;1.47;;;14.70;84.40;;;;;;6246921;23;20737;-69
2021/10/21 16:38:32;;;;;;;3.17;1.10;;;14.60;83.90;;;;;;6246700;23;20433;-69
2021/10/21 16:41:00;;;;;;;4.80;1.40;;;14.60;84.90;;;;;;6246689;22;20431;-69
2021/10/21 16:43:26;;;;;;;4.53;2.33;;;14.60;84.00;;;;;;6246782;23;20411;-70
2021/10/21 16:45:53;;;;;;;4.53;1.27;;;14.60;84.30;;;;;;6246375;23;20435;-69
2021/10/21 16:48:22;;;;;;;2.83;1.47;;;14.60;84.10;;;;;;6246620;23;20418;-67
2021/10/21 16:50:50;;;;;;;2.60;1.17;;;14.60;84.20;;;;;;6246597;22;20430;-69
2021/10/21 16:53:16;;;;;;;2.30;1.30;;;14.60;84.20;;;;;;6246459;23;20896;-69
2021/10/21 16:55:43;;;;;;;4.50;1.17;;;14.60;84.10;;;;;;6247322;23;20410;-69
2021/10/21 16:58:10;;;;;;;2.67;1.50;;;14.60;84.50;;;;;;6246911;23;20440;-69
2021/10/21 17:00:37;;;;;;;2.73;1.17;;;14.60;85.10;;;;;;6246524;22;20439;-68
2021/10/21 17:03:03;;;;;;;4.23;1.73;;;14.50;84.70;;;;;;6247504;23;20399;-67
2021/10/21 17:05:32;;;;;;;2.20;1.57;;;14.50;84.40;;;;;;6251601;23;20429;-67
2021/10/21 17:07:59;;;;;;;6.33;1.80;;;14.50;84.50;;;;;;6246344;23;20824;-66
2021/10/21 17:10:26;;;;;;;5.07;1.83;;;14.50;84.30;;;;;;6246557;22;20433;-67
2021/10/21 17:12:52;;;;;;;4.53;1.53;;;14.50;86.20;;;;;;6246796;23;20411;-67
2021/10/21 17:15:19;;;;;;;4.43;1.10;;;14.50;85.70;;;;;;6246819;23;20411;-67
2021/10/21 17:17:47;;;;;;;4.27;1.80;;;14.50;85.60;;;;;;6246623;23;20406;-67
2021/10/21 17:20:14;;;;;;;3.10;1.20;;;14.50;86.00;;;;;;6246594;23;20449;-67
2021/10/21 17:22:42;;;;;;;3.00;1.00;;;14.50;86.20;;;;;;6246280;22;20836;-67